sensor_id;sensor_type;location;lat;lon;timestamp;P1;durP1;ratioP1;P2;durP2;ratioP2
67456;SDS011;54319;52.038;4.640;2024-03-08T00:02:19;29.60;;;14.60;;
67456;SDS011;54319;52.038;4.640;2024-03-08T00:04:45;25.52;;;14.55;;
67456;SDS011;54319;52.038;4.640;2024-03-08T00:07:12;25.65;;;14.35;;
67456;SDS011;54319;52.038;4.640;2024-03-08T00:09:39;29.52;;;14.68;;
67456;SDS011;54319;52.038;4.640;2024-03-08T00:12:07;28.73;;;14.38;;
67456;SDS011;54319;52.038;4.640;2024-03-08T00:14:35;28.30;;;14.02;;
67456;SDS011;54319;52.038;4.640;2024-03-08T00:17:02;31.67;;;15.15;;
67456;SDS011;54319;52.038;4.640;2024-03-08T00:19:29;29.90;;;14.57;;
67456;SDS011;54319;52.038;4.640;2024-03-08T00:21:56;30.58;;;15.32;;
67456;SDS011;54319;52.038;4.640;2024-03-08T00:24:23;27.00;;;14.60;;
67456;SDS011;54319;52.038;4.640;2024-03-08T00:26:50;26.23;;;14.25;;
67456;SDS011;54319;52.038;4.640;2024-03-08T00:29:20;29.00;;;14.07;;
67456;SDS011;54319;52.038;4.640;2024-03-08T00:31:47;27.88;;;14.40;;
67456;SDS011;54319;52.038;4.640;2024-03-08T00:34:14;27.77;;;14.57;;
67456;SDS011;54319;52.038;4.640;2024-03-08T00:36:41;29.48;;;14.77;;
67456;SDS011;54319;52.038;4.640;2024-03-08T00:39:07;28.25;;;13.70;;
67456;SDS011;54319;52.038;4.640;2024-03-08T00:41:34;28.92;;;14.07;;
67456;SDS011;54319;52.038;4.640;2024-03-08T00:44:01;31.70;;;15.40;;
67456;SDS011;54319;52.038;4.640;2024-03-08T00:46:31;27.85;;;14.30;;
67456;SDS011;54319;52.038;4.640;2024-03-08T00:48:58;29.92;;;15.20;;
67456;SDS011;54319;52.038;4.640;2024-03-08T00:51:26;26.55;;;13.80;;
67456;SDS011;54319;52.038;4.640;2024-03-08T00:53:53;28.15;;;14.10;;
67456;SDS011;54319;52.038;4.640;2024-03-08T00:56:19;30.50;;;14.65;;
67456;SDS011;54319;52.038;4.640;2024-03-08T00:58:45;25.92;;;14.45;;
67456;SDS011;54319;52.038;4.640;2024-03-08T01:01:12;37.22;;;15.32;;
67456;SDS011;54319;52.038;4.640;2024-03-08T01:03:43;27.77;;;13.88;;
67456;SDS011;54319;52.038;4.640;2024-03-08T01:06:10;25.70;;;14.00;;
67456;SDS011;54319;52.038;4.640;2024-03-08T01:08:37;27.08;;;14.98;;
67456;SDS011;54319;52.038;4.640;2024-03-08T01:11:07;28.60;;;13.57;;
67456;SDS011;54319;52.038;4.640;2024-03-08T01:13:34;26.55;;;13.88;;
67456;SDS011;54319;52.038;4.640;2024-03-08T01:16:01;35.60;;;15.00;;
67456;SDS011;54319;52.038;4.640;2024-03-08T01:18:28;25.33;;;14.43;;
67456;SDS011;54319;52.038;4.640;2024-03-08T01:20:57;30.15;;;14.45;;
67456;SDS011;54319;52.038;4.640;2024-03-08T01:23:23;25.33;;;14.10;;
67456;SDS011;54319;52.038;4.640;2024-03-08T01:25:51;30.38;;;15.50;;
67456;SDS011;54319;52.038;4.640;2024-03-08T01:28:22;31.27;;;14.82;;
67456;SDS011;54319;52.038;4.640;2024-03-08T01:30:49;26.90;;;15.18;;
67456;SDS011;54319;52.038;4.640;2024-03-08T01:33:20;27.08;;;14.63;;
67456;SDS011;54319;52.038;4.640;2024-03-08T01:35:47;24.90;;;13.65;;
67456;SDS011;54319;52.038;4.640;2024-03-08T01:38:16;33.10;;;16.00;;
67456;SDS011;54319;52.038;4.640;2024-03-08T01:40:43;31.38;;;14.90;;
67456;SDS011;54319;52.038;4.640;2024-03-08T01:43:17;27.90;;;14.47;;
67456;SDS011;54319;52.038;4.640;2024-03-08T01:45:45;32.03;;;14.90;;
67456;SDS011;54319;52.038;4.640;2024-03-08T01:48:11;25.00;;;13.67;;
67456;SDS011;54319;52.038;4.640;2024-03-08T01:50:40;27.13;;;15.02;;
67456;SDS011;54319;52.038;4.640;2024-03-08T01:53:07;24.95;;;14.65;;
67456;SDS011;54319;52.038;4.640;2024-03-08T01:55:41;27.02;;;14.25;;
67456;SDS011;54319;52.038;4.640;2024-03-08T01:58:10;25.75;;;14.18;;
67456;SDS011;54319;52.038;4.640;2024-03-08T02:00:40;27.48;;;14.85;;
67456;SDS011;54319;52.038;4.640;2024-03-08T02:03:10;28.85;;;14.30;;
67456;SDS011;54319;52.038;4.640;2024-03-08T02:05:36;32.88;;;15.82;;
67456;SDS011;54319;52.038;4.640;2024-03-08T02:08:06;30.45;;;14.30;;
67456;SDS011;54319;52.038;4.640;2024-03-08T02:10:37;28.90;;;14.05;;
67456;SDS011;54319;52.038;4.640;2024-03-08T02:13:08;23.42;;;14.05;;
67456;SDS011;54319;52.038;4.640;2024-03-08T02:15:51;26.05;;;14.82;;
67456;SDS011;54319;52.038;4.640;2024-03-08T02:18:19;28.90;;;14.45;;
67456;SDS011;54319;52.038;4.640;2024-03-08T02:20:47;25.05;;;14.25;;
67456;SDS011;54319;52.038;4.640;2024-03-08T02:23:14;26.52;;;14.98;;
67456;SDS011;54319;52.038;4.640;2024-03-08T02:25:41;28.60;;;14.55;;
67456;SDS011;54319;52.038;4.640;2024-03-08T02:28:09;28.23;;;15.05;;
67456;SDS011;54319;52.038;4.640;2024-03-08T02:30:37;27.42;;;14.10;;
67456;SDS011;54319;52.038;4.640;2024-03-08T02:33:04;34.08;;;15.38;;
67456;SDS011;54319;52.038;4.640;2024-03-08T02:35:32;29.15;;;14.73;;
67456;SDS011;54319;52.038;4.640;2024-03-08T02:38:01;31.10;;;14.73;;
67456;SDS011;54319;52.038;4.640;2024-03-08T02:40:28;28.83;;;14.52;;
67456;SDS011;54319;52.038;4.640;2024-03-08T02:42:55;24.95;;;14.50;;
67456;SDS011;54319;52.038;4.640;2024-03-08T02:45:22;25.95;;;14.55;;
67456;SDS011;54319;52.038;4.640;2024-03-08T02:47:49;28.15;;;14.77;;
67456;SDS011;54319;52.038;4.640;2024-03-08T02:50:16;26.10;;;13.32;;
67456;SDS011;54319;52.038;4.640;2024-03-08T02:52:44;24.00;;;13.15;;
67456;SDS011;54319;52.038;4.640;2024-03-08T02:55:12;25.48;;;14.45;;
67456;SDS011;54319;52.038;4.640;2024-03-08T02:57:41;30.65;;;15.25;;
67456;SDS011;54319;52.038;4.640;2024-03-08T03:00:09;29.58;;;15.73;;
67456;SDS011;54319;52.038;4.640;2024-03-08T03:02:36;24.52;;;13.85;;
67456;SDS011;54319;52.038;4.640;2024-03-08T03:05:03;29.07;;;15.13;;
67456;SDS011;54319;52.038;4.640;2024-03-08T03:07:31;26.05;;;15.05;;
67456;SDS011;54319;52.038;4.640;2024-03-08T03:09:58;28.40;;;15.75;;
67456;SDS011;54319;52.038;4.640;2024-03-08T03:12:27;27.83;;;14.82;;
67456;SDS011;54319;52.038;4.640;2024-03-08T03:14:53;27.27;;;14.93;;
67456;SDS011;54319;52.038;4.640;2024-03-08T03:19:48;26.33;;;13.90;;
67456;SDS011;54319;52.038;4.640;2024-03-08T03:22:15;25.30;;;14.55;;
67456;SDS011;54319;52.038;4.640;2024-03-08T03:24:42;25.52;;;14.20;;
67456;SDS011;54319;52.038;4.640;2024-03-08T03:27:08;28.13;;;15.55;;
67456;SDS011;54319;52.038;4.640;2024-03-08T03:29:38;31.02;;;14.95;;
67456;SDS011;54319;52.038;4.640;2024-03-08T03:32:05;23.75;;;13.75;;
67456;SDS011;54319;52.038;4.640;2024-03-08T03:37:01;34.20;;;14.68;;
67456;SDS011;54319;52.038;4.640;2024-03-08T03:39:28;29.90;;;15.60;;
67456;SDS011;54319;52.038;4.640;2024-03-08T03:41:56;29.33;;;15.57;;
67456;SDS011;54319;52.038;4.640;2024-03-08T03:44:23;24.47;;;14.40;;
67456;SDS011;54319;52.038;4.640;2024-03-08T03:46:51;27.33;;;14.67;;
67456;SDS011;54319;52.038;4.640;2024-03-08T03:49:18;30.50;;;15.75;;
67456;SDS011;54319;52.038;4.640;2024-03-08T03:51:45;32.72;;;16.33;;
67456;SDS011;54319;52.038;4.640;2024-03-08T03:54:12;25.48;;;14.60;;
67456;SDS011;54319;52.038;4.640;2024-03-08T03:56:39;27.50;;;14.90;;
67456;SDS011;54319;52.038;4.640;2024-03-08T03:59:06;28.27;;;15.07;;
67456;SDS011;54319;52.038;4.640;2024-03-08T04:01:33;27.40;;;15.63;;
67456;SDS011;54319;52.038;4.640;2024-03-08T04:04:01;27.20;;;15.43;;
67456;SDS011;54319;52.038;4.640;2024-03-08T04:06:28;28.85;;;15.75;;
67456;SDS011;54319;52.038;4.640;2024-03-08T04:08:55;28.77;;;15.02;;
67456;SDS011;54319;52.038;4.640;2024-03-08T04:11:23;32.55;;;14.73;;
67456;SDS011;54319;52.038;4.640;2024-03-08T04:13:50;29.10;;;15.15;;
67456;SDS011;54319;52.038;4.640;2024-03-08T04:18:44;28.35;;;14.80;;
67456;SDS011;54319;52.038;4.640;2024-03-08T04:21:12;27.90;;;14.90;;
67456;SDS011;54319;52.038;4.640;2024-03-08T04:23:39;23.95;;;14.27;;
67456;SDS011;54319;52.038;4.640;2024-03-08T04:26:05;26.95;;;15.90;;
67456;SDS011;54319;52.038;4.640;2024-03-08T04:28:34;28.52;;;16.08;;
67456;SDS011;54319;52.038;4.640;2024-03-08T04:31:02;30.17;;;14.85;;
67456;SDS011;54319;52.038;4.640;2024-03-08T04:33:29;28.45;;;15.80;;
67456;SDS011;54319;52.038;4.640;2024-03-08T04:35:57;30.40;;;16.20;;
67456;SDS011;54319;52.038;4.640;2024-03-08T04:38:25;27.70;;;15.00;;
67456;SDS011;54319;52.038;4.640;2024-03-08T04:40:52;27.48;;;15.48;;
67456;SDS011;54319;52.038;4.640;2024-03-08T04:43:19;32.70;;;16.60;;
67456;SDS011;54319;52.038;4.640;2024-03-08T04:45:46;26.20;;;15.15;;
67456;SDS011;54319;52.038;4.640;2024-03-08T04:48:13;28.30;;;15.05;;
67456;SDS011;54319;52.038;4.640;2024-03-08T04:50:40;26.40;;;15.30;;
67456;SDS011;54319;52.038;4.640;2024-03-08T04:53:07;30.90;;;16.00;;
67456;SDS011;54319;52.038;4.640;2024-03-08T04:55:35;25.90;;;14.85;;
67456;SDS011;54319;52.038;4.640;2024-03-08T04:58:02;28.77;;;15.10;;
67456;SDS011;54319;52.038;4.640;2024-03-08T05:00:31;26.88;;;15.40;;
67456;SDS011;54319;52.038;4.640;2024-03-08T05:02:59;28.10;;;15.88;;
67456;SDS011;54319;52.038;4.640;2024-03-08T05:05:25;32.17;;;16.02;;
67456;SDS011;54319;52.038;4.640;2024-03-08T05:07:54;25.77;;;16.02;;
67456;SDS011;54319;52.038;4.640;2024-03-08T05:10:21;27.85;;;16.73;;
67456;SDS011;54319;52.038;4.640;2024-03-08T05:12:49;30.00;;;16.17;;
67456;SDS011;54319;52.038;4.640;2024-03-08T05:15:15;29.40;;;16.33;;
67456;SDS011;54319;52.038;4.640;2024-03-08T05:17:42;27.25;;;16.63;;
67456;SDS011;54319;52.038;4.640;2024-03-08T05:20:10;26.38;;;16.30;;
67456;SDS011;54319;52.038;4.640;2024-03-08T05:22:38;28.70;;;16.20;;
67456;SDS011;54319;52.038;4.640;2024-03-08T05:25:05;25.65;;;15.70;;
67456;SDS011;54319;52.038;4.640;2024-03-08T05:27:34;25.55;;;15.55;;
67456;SDS011;54319;52.038;4.640;2024-03-08T05:30:02;29.13;;;16.58;;
67456;SDS011;54319;52.038;4.640;2024-03-08T05:32:30;31.25;;;15.43;;
67456;SDS011;54319;52.038;4.640;2024-03-08T05:37:24;24.73;;;15.38;;
67456;SDS011;54319;52.038;4.640;2024-03-08T05:39:51;27.87;;;16.23;;
67456;SDS011;54319;52.038;4.640;2024-03-08T05:42:19;25.80;;;15.55;;
67456;SDS011;54319;52.038;4.640;2024-03-08T05:44:46;25.55;;;15.50;;
67456;SDS011;54319;52.038;4.640;2024-03-08T05:47:14;27.20;;;16.27;;
67456;SDS011;54319;52.038;4.640;2024-03-08T05:49:42;33.45;;;16.73;;
67456;SDS011;54319;52.038;4.640;2024-03-08T05:52:10;30.17;;;15.63;;
67456;SDS011;54319;52.038;4.640;2024-03-08T05:54:37;30.27;;;16.60;;
67456;SDS011;54319;52.038;4.640;2024-03-08T05:57:03;25.38;;;15.70;;
67456;SDS011;54319;52.038;4.640;2024-03-08T05:59:31;26.77;;;16.02;;
67456;SDS011;54319;52.038;4.640;2024-03-08T06:01:58;28.33;;;15.82;;
67456;SDS011;54319;52.038;4.640;2024-03-08T06:04:26;28.35;;;16.77;;
67456;SDS011;54319;52.038;4.640;2024-03-08T06:06:54;29.52;;;17.08;;
67456;SDS011;54319;52.038;4.640;2024-03-08T06:09:22;30.73;;;16.50;;
67456;SDS011;54319;52.038;4.640;2024-03-08T06:11:49;26.33;;;16.40;;
67456;SDS011;54319;52.038;4.640;2024-03-08T06:14:16;30.80;;;16.57;;
67456;SDS011;54319;52.038;4.640;2024-03-08T06:19:10;27.30;;;15.47;;
67456;SDS011;54319;52.038;4.640;2024-03-08T06:21:39;22.42;;;14.68;;
67456;SDS011;54319;52.038;4.640;2024-03-08T06:24:06;27.50;;;15.20;;
67456;SDS011;54319;52.038;4.640;2024-03-08T06:26:33;33.17;;;16.90;;
67456;SDS011;54319;52.038;4.640;2024-03-08T06:29:02;30.52;;;16.88;;
67456;SDS011;54319;52.038;4.640;2024-03-08T06:31:31;25.67;;;16.13;;
67456;SDS011;54319;52.038;4.640;2024-03-08T06:33:58;27.30;;;16.23;;
67456;SDS011;54319;52.038;4.640;2024-03-08T06:36:25;27.88;;;15.95;;
67456;SDS011;54319;52.038;4.640;2024-03-08T06:38:54;28.58;;;16.05;;
67456;SDS011;54319;52.038;4.640;2024-03-08T06:41:22;32.08;;;16.65;;
67456;SDS011;54319;52.038;4.640;2024-03-08T06:43:49;29.02;;;16.75;;
67456;SDS011;54319;52.038;4.640;2024-03-08T06:46:16;31.10;;;16.73;;
67456;SDS011;54319;52.038;4.640;2024-03-08T06:48:45;29.50;;;15.70;;
67456;SDS011;54319;52.038;4.640;2024-03-08T06:51:12;29.70;;;16.23;;
67456;SDS011;54319;52.038;4.640;2024-03-08T06:53:39;26.25;;;14.73;;
67456;SDS011;54319;52.038;4.640;2024-03-08T06:56:07;32.38;;;17.05;;
67456;SDS011;54319;52.038;4.640;2024-03-08T06:58:34;29.17;;;16.25;;
67456;SDS011;54319;52.038;4.640;2024-03-08T07:01:01;28.20;;;15.57;;
67456;SDS011;54319;52.038;4.640;2024-03-08T07:03:29;24.30;;;15.40;;
67456;SDS011;54319;52.038;4.640;2024-03-08T07:05:57;29.55;;;16.23;;
67456;SDS011;54319;52.038;4.640;2024-03-08T07:08:24;29.75;;;17.27;;
67456;SDS011;54319;52.038;4.640;2024-03-08T07:10:52;31.73;;;16.52;;
67456;SDS011;54319;52.038;4.640;2024-03-08T07:13:20;29.77;;;15.65;;
67456;SDS011;54319;52.038;4.640;2024-03-08T07:15:47;26.33;;;16.63;;
67456;SDS011;54319;52.038;4.640;2024-03-08T07:18:14;24.30;;;15.77;;
67456;SDS011;54319;52.038;4.640;2024-03-08T07:20:41;27.00;;;16.70;;
67456;SDS011;54319;52.038;4.640;2024-03-08T07:23:08;25.63;;;15.93;;
67456;SDS011;54319;52.038;4.640;2024-03-08T07:25:35;27.73;;;16.25;;
67456;SDS011;54319;52.038;4.640;2024-03-08T07:28:04;25.17;;;15.23;;
67456;SDS011;54319;52.038;4.640;2024-03-08T07:30:34;30.67;;;15.98;;
67456;SDS011;54319;52.038;4.640;2024-03-08T07:33:33;27.90;;;16.55;;
67456;SDS011;54319;52.038;4.640;2024-03-08T07:36:00;27.70;;;15.10;;
67456;SDS011;54319;52.038;4.640;2024-03-08T07:38:27;27.33;;;15.68;;
67456;SDS011;54319;52.038;4.640;2024-03-08T07:40:54;23.45;;;15.27;;
67456;SDS011;54319;52.038;4.640;2024-03-08T07:45:50;26.50;;;15.77;;
67456;SDS011;54319;52.038;4.640;2024-03-08T07:48:18;23.92;;;14.75;;
67456;SDS011;54319;52.038;4.640;2024-03-08T07:50:46;26.77;;;14.98;;
67456;SDS011;54319;52.038;4.640;2024-03-08T07:53:15;24.45;;;14.40;;
67456;SDS011;54319;52.038;4.640;2024-03-08T07:55:41;26.17;;;14.33;;
67456;SDS011;54319;52.038;4.640;2024-03-08T07:58:09;23.63;;;14.88;;
67456;SDS011;54319;52.038;4.640;2024-03-08T08:00:38;25.50;;;15.40;;
67456;SDS011;54319;52.038;4.640;2024-03-08T08:03:07;21.20;;;13.52;;
67456;SDS011;54319;52.038;4.640;2024-03-08T08:05:34;22.33;;;14.82;;
67456;SDS011;54319;52.038;4.640;2024-03-08T08:08:03;27.42;;;15.38;;
67456;SDS011;54319;52.038;4.640;2024-03-08T08:10:31;25.00;;;15.15;;
67456;SDS011;54319;52.038;4.640;2024-03-08T08:12:58;23.00;;;14.83;;
67456;SDS011;54319;52.038;4.640;2024-03-08T08:15:25;24.65;;;14.30;;
67456;SDS011;54319;52.038;4.640;2024-03-08T08:17:53;23.98;;;14.77;;
67456;SDS011;54319;52.038;4.640;2024-03-08T08:20:22;22.73;;;14.75;;
67456;SDS011;54319;52.038;4.640;2024-03-08T08:22:51;25.80;;;15.32;;
67456;SDS011;54319;52.038;4.640;2024-03-08T08:25:20;25.95;;;15.13;;
67456;SDS011;54319;52.038;4.640;2024-03-08T08:27:49;27.48;;;16.30;;
67456;SDS011;54319;52.038;4.640;2024-03-08T08:30:18;24.30;;;14.40;;
67456;SDS011;54319;52.038;4.640;2024-03-08T08:32:45;23.60;;;14.38;;
67456;SDS011;54319;52.038;4.640;2024-03-08T08:35:13;24.20;;;14.82;;
67456;SDS011;54319;52.038;4.640;2024-03-08T08:37:41;25.13;;;14.73;;
67456;SDS011;54319;52.038;4.640;2024-03-08T08:40:09;23.27;;;14.40;;
67456;SDS011;54319;52.038;4.640;2024-03-08T08:42:39;23.25;;;14.60;;
67456;SDS011;54319;52.038;4.640;2024-03-08T08:45:06;25.73;;;15.00;;
67456;SDS011;54319;52.038;4.640;2024-03-08T08:47:34;23.40;;;14.68;;
67456;SDS011;54319;52.038;4.640;2024-03-08T08:50:01;22.10;;;14.50;;
67456;SDS011;54319;52.038;4.640;2024-03-08T08:52:29;25.80;;;14.13;;
67456;SDS011;54319;52.038;4.640;2024-03-08T08:57:25;22.10;;;12.93;;
67456;SDS011;54319;52.038;4.640;2024-03-08T08:59:53;23.10;;;14.55;;
67456;SDS011;54319;52.038;4.640;2024-03-08T09:02:20;22.52;;;13.40;;
67456;SDS011;54319;52.038;4.640;2024-03-08T09:04:48;23.02;;;14.27;;
67456;SDS011;54319;52.038;4.640;2024-03-08T09:07:15;24.13;;;14.07;;
67456;SDS011;54319;52.038;4.640;2024-03-08T09:09:44;25.27;;;14.23;;
67456;SDS011;54319;52.038;4.640;2024-03-08T09:12:13;24.50;;;14.90;;
67456;SDS011;54319;52.038;4.640;2024-03-08T09:14:40;23.25;;;13.75;;
67456;SDS011;54319;52.038;4.640;2024-03-08T09:17:06;25.80;;;13.73;;
67456;SDS011;54319;52.038;4.640;2024-03-08T09:19:34;23.85;;;13.70;;
67456;SDS011;54319;52.038;4.640;2024-03-08T09:22:01;21.67;;;13.45;;
67456;SDS011;54319;52.038;4.640;2024-03-08T09:24:31;22.85;;;13.57;;
67456;SDS011;54319;52.038;4.640;2024-03-08T09:26:58;20.23;;;13.48;;
67456;SDS011;54319;52.038;4.640;2024-03-08T09:29:26;20.52;;;13.75;;
67456;SDS011;54319;52.038;4.640;2024-03-08T09:31:54;21.23;;;13.57;;
67456;SDS011;54319;52.038;4.640;2024-03-08T09:34:21;24.20;;;13.90;;
67456;SDS011;54319;52.038;4.640;2024-03-08T09:36:48;22.75;;;14.57;;
67456;SDS011;54319;52.038;4.640;2024-03-08T09:39:16;25.30;;;14.50;;
67456;SDS011;54319;52.038;4.640;2024-03-08T09:41:44;22.98;;;13.23;;
67456;SDS011;54319;52.038;4.640;2024-03-08T09:44:13;22.60;;;13.43;;
67456;SDS011;54319;52.038;4.640;2024-03-08T09:46:41;21.35;;;13.48;;
67456;SDS011;54319;52.038;4.640;2024-03-08T09:49:12;24.98;;;14.10;;
67456;SDS011;54319;52.038;4.640;2024-03-08T09:51:39;20.87;;;13.10;;
67456;SDS011;54319;52.038;4.640;2024-03-08T09:54:06;24.20;;;13.57;;
67456;SDS011;54319;52.038;4.640;2024-03-08T09:56:33;22.30;;;14.45;;
67456;SDS011;54319;52.038;4.640;2024-03-08T09:59:01;20.70;;;13.45;;
67456;SDS011;54319;52.038;4.640;2024-03-08T10:01:51;22.92;;;12.93;;
67456;SDS011;54319;52.038;4.640;2024-03-08T10:04:21;21.65;;;13.38;;
67456;SDS011;54319;52.038;4.640;2024-03-08T10:06:48;22.60;;;13.23;;
67456;SDS011;54319;52.038;4.640;2024-03-08T10:09:15;20.75;;;13.10;;
67456;SDS011;54319;52.038;4.640;2024-03-08T10:11:41;23.63;;;12.98;;
67456;SDS011;54319;52.038;4.640;2024-03-08T10:14:08;20.55;;;13.60;;
67456;SDS011;54319;52.038;4.640;2024-03-08T10:16:35;25.90;;;13.65;;
67456;SDS011;54319;52.038;4.640;2024-03-08T10:19:03;25.70;;;13.40;;
67456;SDS011;54319;52.038;4.640;2024-03-08T10:21:31;21.88;;;12.77;;
67456;SDS011;54319;52.038;4.640;2024-03-08T10:24:00;20.23;;;12.35;;
67456;SDS011;54319;52.038;4.640;2024-03-08T10:26:29;22.58;;;12.63;;
67456;SDS011;54319;52.038;4.640;2024-03-08T10:28:57;21.60;;;13.18;;
67456;SDS011;54319;52.038;4.640;2024-03-08T10:31:24;23.52;;;12.57;;
67456;SDS011;54319;52.038;4.640;2024-03-08T10:33:50;23.85;;;13.60;;
67456;SDS011;54319;52.038;4.640;2024-03-08T10:36:19;19.77;;;12.50;;
67456;SDS011;54319;52.038;4.640;2024-03-08T10:38:46;19.85;;;11.88;;
67456;SDS011;54319;52.038;4.640;2024-03-08T10:43:47;20.38;;;12.55;;
67456;SDS011;54319;52.038;4.640;2024-03-08T10:46:27;19.30;;;12.57;;
67456;SDS011;54319;52.038;4.640;2024-03-08T10:48:58;17.98;;;11.55;;
67456;SDS011;54319;52.038;4.640;2024-03-08T10:51:31;20.23;;;12.48;;
67456;SDS011;54319;52.038;4.640;2024-03-08T10:53:58;18.63;;;12.68;;
67456;SDS011;54319;52.038;4.640;2024-03-08T10:56:28;18.45;;;12.15;;
67456;SDS011;54319;52.038;4.640;2024-03-08T10:58:55;18.85;;;11.75;;
67456;SDS011;54319;52.038;4.640;2024-03-08T11:01:22;21.65;;;11.88;;
67456;SDS011;54319;52.038;4.640;2024-03-08T11:03:51;21.58;;;12.15;;
67456;SDS011;54319;52.038;4.640;2024-03-08T11:09:27;19.92;;;11.63;;
67456;SDS011;54319;52.038;4.640;2024-03-08T11:14:46;16.52;;;11.35;;
67456;SDS011;54319;52.038;4.640;2024-03-08T11:17:15;18.55;;;11.80;;
67456;SDS011;54319;52.038;4.640;2024-03-08T11:19:45;17.70;;;11.77;;
67456;SDS011;54319;52.038;4.640;2024-03-08T11:22:21;18.92;;;12.27;;
67456;SDS011;54319;52.038;4.640;2024-03-08T11:24:50;20.70;;;11.15;;
67456;SDS011;54319;52.038;4.640;2024-03-08T11:27:17;17.60;;;11.48;;
67456;SDS011;54319;52.038;4.640;2024-03-08T11:29:46;17.35;;;11.20;;
67456;SDS011;54319;52.038;4.640;2024-03-08T11:32:27;19.02;;;11.75;;
67456;SDS011;54319;52.038;4.640;2024-03-08T11:34:55;17.17;;;10.60;;
67456;SDS011;54319;52.038;4.640;2024-03-08T11:37:26;20.58;;;10.70;;
67456;SDS011;54319;52.038;4.640;2024-03-08T11:39:55;15.32;;;10.23;;
67456;SDS011;54319;52.038;4.640;2024-03-08T11:42:24;17.48;;;11.13;;
67456;SDS011;54319;52.038;4.640;2024-03-08T11:44:52;16.27;;;10.68;;
67456;SDS011;54319;52.038;4.640;2024-03-08T11:47:21;17.73;;;11.32;;
67456;SDS011;54319;52.038;4.640;2024-03-08T11:49:48;15.23;;;10.65;;
67456;SDS011;54319;52.038;4.640;2024-03-08T11:52:15;17.27;;;10.63;;
67456;SDS011;54319;52.038;4.640;2024-03-08T11:54:47;15.93;;;10.07;;
67456;SDS011;54319;52.038;4.640;2024-03-08T11:57:18;16.98;;;10.02;;
67456;SDS011;54319;52.038;4.640;2024-03-08T11:59:49;16.63;;;10.48;;
67456;SDS011;54319;52.038;4.640;2024-03-08T12:02:16;15.02;;;9.85;;
67456;SDS011;54319;52.038;4.640;2024-03-08T12:04:44;16.00;;;10.32;;
67456;SDS011;54319;52.038;4.640;2024-03-08T12:07:12;17.23;;;10.48;;
67456;SDS011;54319;52.038;4.640;2024-03-08T12:09:39;17.58;;;10.38;;
67456;SDS011;54319;52.038;4.640;2024-03-08T12:12:12;14.43;;;9.80;;
67456;SDS011;54319;52.038;4.640;2024-03-08T12:14:42;18.13;;;10.02;;
67456;SDS011;54319;52.038;4.640;2024-03-08T12:17:10;19.30;;;10.88;;
67456;SDS011;54319;52.038;4.640;2024-03-08T12:19:37;17.53;;;10.63;;
67456;SDS011;54319;52.038;4.640;2024-03-08T12:22:08;17.08;;;10.40;;
67456;SDS011;54319;52.038;4.640;2024-03-08T12:24:36;15.48;;;10.48;;
67456;SDS011;54319;52.038;4.640;2024-03-08T12:27:18;18.50;;;11.18;;
67456;SDS011;54319;52.038;4.640;2024-03-08T12:29:45;18.20;;;10.68;;
67456;SDS011;54319;52.038;4.640;2024-03-08T12:32:12;16.67;;;10.97;;
67456;SDS011;54319;52.038;4.640;2024-03-08T12:34:39;17.48;;;10.95;;
67456;SDS011;54319;52.038;4.640;2024-03-08T12:37:06;17.45;;;11.23;;
67456;SDS011;54319;52.038;4.640;2024-03-08T12:39:34;18.05;;;11.27;;
67456;SDS011;54319;52.038;4.640;2024-03-08T12:42:02;17.42;;;11.63;;
67456;SDS011;54319;52.038;4.640;2024-03-08T12:44:32;17.73;;;11.73;;
67456;SDS011;54319;52.038;4.640;2024-03-08T12:46:59;17.13;;;10.63;;
67456;SDS011;54319;52.038;4.640;2024-03-08T12:49:26;18.65;;;11.48;;
67456;SDS011;54319;52.038;4.640;2024-03-08T12:51:53;17.88;;;11.15;;
67456;SDS011;54319;52.038;4.640;2024-03-08T12:54:20;17.73;;;11.15;;
67456;SDS011;54319;52.038;4.640;2024-03-08T12:56:49;19.77;;;10.98;;
67456;SDS011;54319;52.038;4.640;2024-03-08T12:59:18;15.98;;;10.88;;
67456;SDS011;54319;52.038;4.640;2024-03-08T13:01:49;19.75;;;10.93;;
67456;SDS011;54319;52.038;4.640;2024-03-08T13:04:18;16.90;;;10.70;;
67456;SDS011;54319;52.038;4.640;2024-03-08T13:09:15;19.27;;;10.93;;
67456;SDS011;54319;52.038;4.640;2024-03-08T13:11:44;17.95;;;11.30;;
67456;SDS011;54319;52.038;4.640;2024-03-08T13:14:11;15.60;;;10.87;;
67456;SDS011;54319;52.038;4.640;2024-03-08T13:16:38;17.00;;;11.32;;
67456;SDS011;54319;52.038;4.640;2024-03-08T13:19:06;19.50;;;11.38;;
67456;SDS011;54319;52.038;4.640;2024-03-08T13:21:33;19.25;;;11.35;;
67456;SDS011;54319;52.038;4.640;2024-03-08T13:24:00;17.77;;;10.70;;
67456;SDS011;54319;52.038;4.640;2024-03-08T13:26:28;16.42;;;10.80;;
67456;SDS011;54319;52.038;4.640;2024-03-08T13:28:57;18.25;;;11.27;;
67456;SDS011;54319;52.038;4.640;2024-03-08T13:31:24;17.25;;;11.18;;
67456;SDS011;54319;52.038;4.640;2024-03-08T13:33:51;17.88;;;10.98;;
67456;SDS011;54319;52.038;4.640;2024-03-08T13:36:24;19.65;;;11.60;;
67456;SDS011;54319;52.038;4.640;2024-03-08T13:38:54;15.68;;;11.02;;
67456;SDS011;54319;52.038;4.640;2024-03-08T13:41:21;16.55;;;11.57;;
67456;SDS011;54319;52.038;4.640;2024-03-08T13:43:49;16.83;;;10.90;;
67456;SDS011;54319;52.038;4.640;2024-03-08T13:46:16;18.50;;;11.20;;
67456;SDS011;54319;52.038;4.640;2024-03-08T13:48:43;17.77;;;11.30;;
67456;SDS011;54319;52.038;4.640;2024-03-08T13:51:10;15.75;;;10.75;;
67456;SDS011;54319;52.038;4.640;2024-03-08T13:53:38;16.88;;;11.18;;
67456;SDS011;54319;52.038;4.640;2024-03-08T13:56:05;18.13;;;11.25;;
67456;SDS011;54319;52.038;4.640;2024-03-08T13:58:35;15.88;;;10.60;;
67456;SDS011;54319;52.038;4.640;2024-03-08T14:01:02;17.58;;;10.23;;
67456;SDS011;54319;52.038;4.640;2024-03-08T14:03:31;17.35;;;10.85;;
67456;SDS011;54319;52.038;4.640;2024-03-08T14:05:58;20.98;;;11.40;;
67456;SDS011;54319;52.038;4.640;2024-03-08T14:08:25;18.70;;;11.88;;
67456;SDS011;54319;52.038;4.640;2024-03-08T14:10:54;17.70;;;11.95;;
67456;SDS011;54319;52.038;4.640;2024-03-08T14:13:21;17.90;;;10.68;;
67456;SDS011;54319;52.038;4.640;2024-03-08T14:15:49;20.23;;;11.57;;
67456;SDS011;54319;52.038;4.640;2024-03-08T14:18:17;16.95;;;11.93;;
67456;SDS011;54319;52.038;4.640;2024-03-08T14:20:43;20.73;;;11.93;;
67456;SDS011;54319;52.038;4.640;2024-03-08T14:23:11;16.33;;;10.68;;
67456;SDS011;54319;52.038;4.640;2024-03-08T14:25:38;17.20;;;11.40;;
67456;SDS011;54319;52.038;4.640;2024-03-08T14:28:06;18.52;;;11.27;;
67456;SDS011;54319;52.038;4.640;2024-03-08T14:30:33;15.75;;;11.25;;
67456;SDS011;54319;52.038;4.640;2024-03-08T14:33:06;18.33;;;11.35;;
67456;SDS011;54319;52.038;4.640;2024-03-08T14:35:34;20.02;;;11.25;;
67456;SDS011;54319;52.038;4.640;2024-03-08T14:38:01;16.42;;;11.07;;
67456;SDS011;54319;52.038;4.640;2024-03-08T14:42:56;19.98;;;10.77;;
67456;SDS011;54319;52.038;4.640;2024-03-08T14:45:25;14.85;;;10.75;;
67456;SDS011;54319;52.038;4.640;2024-03-08T14:47:54;21.42;;;10.88;;
67456;SDS011;54319;52.038;4.640;2024-03-08T14:50:21;18.03;;;11.63;;
67456;SDS011;54319;52.038;4.640;2024-03-08T14:52:49;20.73;;;11.63;;
67456;SDS011;54319;52.038;4.640;2024-03-08T14:55:16;20.65;;;11.90;;
67456;SDS011;54319;52.038;4.640;2024-03-08T14:57:47;19.00;;;11.02;;